Time;durP1;ratioP1;P1;durP2;ratioP2;P2;SDS_P1;SDS_P2;PMS_P1;PMS_P2;Temp;Humidity;BMP_temperature;BMP_pressure;BME280_temperature;BME280_humidity;BME280_pressure;Samples;Min_cycle;Max_cycle;Signal;HPM_P1;HPM_P2
2021/07/12 00:00:45;;;;;;;4.32;2.30;;;;;;;13.59;96.07;98641.69;5026583;28;20123;-68
2021/07/12 00:03:10;;;;;;;5.25;2.65;;;;;;;13.55;96.50;98635.06;5018649;28;20491;-68
2021/07/12 00:05:35;;;;;;;4.18;2.35;;;;;;;13.61;95.25;98639.56;5017550;28;20100;-68
2021/07/12 00:08:01;;;;;;;4.38;2.60;;;;;;;13.60;95.67;98635.22;5021190;28;20024;-68
2021/07/12 00:10:28;;;;;;;3.65;2.50;;;;;;;13.47;95.39;98635.38;5026809;28;20033;-68
2021/07/12 00:12:54;;;;;;;4.03;2.40;;;;;;;13.40;95.83;98621.84;5034450;28;20567;-67
2021/07/12 00:15:21;;;;;;;3.88;2.17;;;;;;;13.47;96.12;98617.16;5025287;28;20077;-67
2021/07/12 00:17:49;;;;;;;4.32;2.40;;;;;;;13.42;95.87;98613.47;5018727;28;20025;-68
2021/07/12 00:20:16;;;;;;;4.25;2.35;;;;;;;13.32;95.34;98608.56;5020750;28;20018;-68
2021/07/12 00:22:43;;;;;;;6.03;2.35;;;;;;;13.24;95.57;98612.38;5027865;28;20125;-68
2021/07/12 00:25:10;;;;;;;8.35;2.75;;;;;;;13.22;95.84;98602.78;5022366;28;20573;-68
2021/07/12 00:27:35;;;;;;;5.68;2.53;;;;;;;13.12;96.80;98603.28;5016583;28;20038;-68
2021/07/12 00:30:03;;;;;;;5.30;2.85;;;;;;;13.06;97.12;98606.91;5023410;28;20038;-68
2021/07/12 00:32:28;;;;;;;7.35;3.10;;;;;;;13.03;97.71;98599.22;5019210;28;20025;-67
2021/07/12 00:34:54;;;;;;;5.75;3.08;;;;;;;13.04;98.35;98603.59;5028283;28;20022;-67
2021/07/12 00:37:19;;;;;;;3.35;2.67;;;;;;;13.00;98.36;98589.63;5025611;28;20021;-68
2021/07/12 00:39:44;;;;;;;4.00;2.25;;;;;;;13.02;97.71;98595.69;5034100;28;20033;-68
2021/07/12 00:42:10;;;;;;;7.07;3.00;;;;;;;12.92;97.31;98593.47;5016599;28;20060;-67
2021/07/12 00:44:35;;;;;;;8.95;3.60;;;;;;;12.89;98.86;98583.06;5032886;28;20033;-68
2021/07/12 00:47:01;;;;;;;9.57;3.10;;;;;;;12.97;98.77;98584.66;5033982;28;20384;-67
2021/07/12 00:49:27;;;;;;;9.25;3.25;;;;;;;12.82;98.83;98576.84;5027568;28;20112;-68
2021/07/12 00:51:54;;;;;;;3.70;2.60;;;;;;;12.72;98.88;98571.91;5016742;28;20604;-68
2021/07/12 00:54:26;;;;;;;3.30;2.58;;;;;;;12.68;99.08;98542.72;5030133;28;20491;-67
2021/07/12 00:56:53;;;;;;;4.25;3.00;;;;;;;12.74;99.52;98538.31;5014355;28;20025;-67
2021/07/12 00:59:19;;;;;;;5.70;3.42;;;;;;;12.83;99.90;98555.97;5033280;28;20109;-67
2021/07/12 01:01:44;;;;;;;4.53;3.30;;;;;;;12.83;100.00;98558.66;5021431;28;20151;-67
2021/07/12 01:04:10;;;;;;;6.03;3.20;;;;;;;12.72;99.63;98538.53;5021895;28;20038;-67
2021/07/12 01:06:35;;;;;;;5.53;3.20;;;;;;;12.82;99.87;98555.13;5018390;28;20034;-68
2021/07/12 01:09:01;;;;;;;9.70;2.97;;;;;;;12.88;99.74;98551.50;5020943;28;20552;-70
2021/07/12 01:11:38;;;;;;;4.78;3.28;;;;;;;12.78;99.92;98543.03;5020504;28;20231;-69
2021/07/12 01:14:19;;;;;;;8.85;3.38;;;;;;;12.84;99.78;98549.50;5026260;28;20116;-68
2021/07/12 01:17:00;;;;;;;4.72;3.35;;;;;;;12.84;99.85;98553.03;5014602;28;20045;-68
2021/07/12 01:19:37;;;;;;;5.00;3.50;;;;;;;12.78;100.00;98551.19;5013189;28;20022;-68
2021/07/12 01:22:39;;;;;;;9.80;3.97;;;;;;;12.72;100.00;98546.66;5023871;28;20025;-68
2021/07/12 01:25:25;;;;;;;4.20;3.72;;;;;;;12.66;100.00;98558.44;5017334;28;20510;-68
2021/07/12 01:28:42;;;;;;;8.20;3.95;;;;;;;12.68;100.00;98549.00;5017712;28;20030;-68
2021/07/12 01:31:35;;;;;;;8.88;4.38;;;;;;;12.60;100.00;98548.44;5016167;28;20033;-68
2021/07/12 01:34:13;;;;;;;4.88;3.55;;;;;;;12.62;100.00;98535.47;5013224;28;20026;-68
2021/07/12 01:36:43;;;;;;;10.15;3.38;;;;;;;12.57;100.00;98540.75;5025247;28;20090;-68
2021/07/12 01:39:15;;;;;;;6.57;3.65;;;;;;;12.54;100.00;98531.16;5026757;28;20025;-68
2021/07/12 01:42:03;;;;;;;5.38;2.92;;;;;;;12.44;100.00;98531.69;5026235;28;20880;-68
2021/07/12 01:44:41;;;;;;;6.55;3.47;;;;;;;12.48;100.00;98532.91;5024496;28;20112;-67
2021/07/12 01:47:15;;;;;;;11.50;3.55;;;;;;;12.46;100.00;98535.00;5032781;28;20029;-69
2021/07/12 01:50:06;;;;;;;10.00;3.10;;;;;;;12.50;99.69;98525.38;5020429;28;20092;-67
2021/07/12 01:52:36;;;;;;;4.50;3.30;;;;;;;12.45;99.16;98527.91;5008587;28;20052;-67
2021/07/12 01:55:11;;;;;;;3.53;2.70;;;;;;;12.49;99.02;98528.28;5032250;28;20371;-67
2021/07/12 01:57:51;;;;;;;4.50;3.28;;;;;;;12.43;99.56;98524.59;5032780;28;20033;-67
2021/07/12 02:00:18;;;;;;;6.20;3.55;;;;;;;12.40;99.72;98525.03;5021938;28;20021;-67
2021/07/12 02:02:45;;;;;;;5.22;3.42;;;;;;;12.34;100.00;98516.94;5015595;28;20038;-67
2021/07/12 02:05:16;;;;;;;6.35;3.22;;;;;;;12.36;100.00;98507.53;5021677;28;20029;-67
2021/07/12 02:07:43;;;;;;;3.90;2.75;;;;;;;12.28;100.00;98503.22;5028482;28;20029;-67
2021/07/12 02:10:09;;;;;;;5.60;3.28;;;;;;;12.27;100.00;98517.00;5012788;28;20125;-68
2021/07/12 02:12:35;;;;;;;7.45;3.08;;;;;;;12.30;100.00;98522.00;5026297;28;20032;-68
2021/07/12 02:15:06;;;;;;;4.53;2.65;;;;;;;12.20;100.00;98529.78;5014841;28;20030;-68
2021/07/12 02:17:33;;;;;;;4.20;2.88;;;;;;;12.15;100.00;98521.47;5030436;28;20028;-68
2021/07/12 02:19:59;;;;;;;6.47;2.63;;;;;;;12.12;100.00;98519.22;5030438;28;20438;-68
2021/07/12 02:22:26;;;;;;;3.55;2.63;;;;;;;11.85;99.79;98494.97;5032306;28;20025;-68
2021/07/12 02:24:54;;;;;;;5.57;2.53;;;;;;;11.94;99.79;98518.09;5029325;28;20037;-67
2021/07/12 02:27:21;;;;;;;4.97;2.30;;;;;;;11.91;99.72;98513.09;5032187;28;20045;-67
2021/07/12 02:29:48;;;;;;;3.63;2.92;;;;;;;11.94;100.00;98514.53;5010368;28;20442;-68
2021/07/12 02:32:14;;;;;;;6.80;2.97;;;;;;;11.97;100.00;98517.66;5014449;28;20079;-68
2021/07/12 02:34:40;;;;;;;4.55;2.80;;;;;;;12.10;100.00;98522.13;5030316;28;20029;-68
2021/07/12 02:37:06;;;;;;;6.35;3.10;;;;;;;12.16;100.00;98520.44;5018909;28;20022;-67
2021/07/12 02:39:33;;;;;;;5.50;3.05;;;;;;;12.11;100.00;98529.25;5012286;28;20048;-68
2021/07/12 02:42:01;;;;;;;6.55;3.15;;;;;;;12.11;100.00;98526.53;5028099;28;20100;-67
2021/07/12 02:44:28;;;;;;;11.50;2.67;;;;;;;12.09;100.00;98530.50;5020065;28;20026;-67
2021/07/12 02:46:53;;;;;;;7.60;2.47;;;;;;;12.01;100.00;98526.19;5030224;28;20029;-68
2021/07/12 02:49:19;;;;;;;3.85;2.38;;;;;;;11.70;99.92;98497.16;5031365;28;20036;-67
2021/07/12 02:51:49;;;;;;;7.10;2.83;;;;;;;11.92;100.00;98531.06;5016481;28;20104;-68
2021/07/12 02:54:19;;;;;;;4.70;2.88;;;;;;;11.92;100.00;98531.06;5030220;28;20116;-68
2021/07/12 02:56:45;;;;;;;7.20;2.97;;;;;;;11.96;100.00;98526.00;5012875;28;20036;-68
2021/07/12 02:59:10;;;;;;;9.27;3.20;;;;;;;12.05;100.00;98533.66;5018329;28;20384;-68
2021/07/12 03:01:36;;;;;;;4.05;2.50;;;;;;;12.10;100.00;98526.75;5023143;28;20069;-67
2021/07/12 03:04:01;;;;;;;6.65;2.65;;;;;;;12.06;100.00;98519.03;5025988;28;20053;-68
2021/07/12 03:06:31;;;;;;;3.65;2.80;;;;;;;12.03;100.00;98524.91;5023136;28;20028;-68
2021/07/12 03:09:06;;;;;;;3.38;2.65;;;;;;;12.06;100.00;98534.50;5018526;28;20041;-68
2021/07/12 03:11:46;;;;;;;12.57;3.30;;;;;;;11.91;100.00;98509.56;5019350;28;20037;-68
2021/07/12 03:14:31;;;;;;;5.60;2.60;;;;;;;12.07;100.00;98528.00;5027505;28;20078;-68
2021/07/12 03:16:57;;;;;;;3.05;2.67;;;;;;;11.96;100.00;98513.28;5030769;28;20029;-67
2021/07/12 03:19:29;;;;;;;4.72;2.47;;;;;;;12.06;99.81;98529.91;5031346;28;20155;-68
2021/07/12 03:21:57;;;;;;;8.80;2.75;;;;;;;12.02;99.45;98525.13;5007646;28;20030;-67
2021/07/12 03:24:26;;;;;;;7.65;2.70;;;;;;;11.94;99.05;98512.66;5023930;28;20236;-68
2021/07/12 03:26:53;;;;;;;3.75;2.55;;;;;;;12.03;98.72;98513.25;5028041;28;20030;-68
2021/07/12 03:29:20;;;;;;;6.50;2.70;;;;;;;11.93;98.46;98507.47;5026439;28;20029;-68
2021/07/12 03:31:45;;;;;;;5.38;2.72;;;;;;;11.92;98.70;98514.78;5015437;28;20160;-68
2021/07/12 03:34:13;;;;;;;4.75;2.65;;;;;;;11.92;99.25;98508.50;5029675;28;20490;-68
2021/07/12 03:36:40;;;;;;;7.88;3.10;;;;;;;11.96;99.78;98504.31;5011991;28;20044;-67
2021/07/12 03:39:06;;;;;;;4.45;2.60;;;;;;;11.84;99.00;98491.44;5025330;28;20029;-67
2021/07/12 03:41:32;;;;;;;8.00;3.28;;;;;;;11.86;98.76;98493.94;5024520;28;20160;-69
2021/07/12 03:43:59;;;;;;;8.02;2.85;;;;;;;11.78;99.79;98472.50;5018950;28;20025;-72
2021/07/12 03:46:24;;;;;;;7.85;3.40;;;;;;;11.97;100.00;98498.69;5029370;28;20029;-73
2021/07/12 03:48:50;;;;;;;7.35;3.20;;;;;;;11.97;100.00;98490.56;5015586;28;20429;-74
2021/07/12 03:51:24;;;;;;;4.50;2.65;;;;;;;11.97;100.00;98500.53;5024173;28;20033;-73
2021/07/12 03:53:50;;;;;;;5.18;2.67;;;;;;;12.02;100.00;98485.28;5019118;28;20140;-72
2021/07/12 03:56:16;;;;;;;5.53;2.72;;;;;;;11.99;99.61;98498.44;5021929;28;20108;-70
2021/07/12 03:58:42;;;;;;;5.33;2.97;;;;;;;12.01;100.00;98483.63;5031581;22;20029;-75
2021/07/12 04:01:08;;;;;;;6.63;3.03;;;;;;;12.07;99.04;98480.03;5052373;28;20052;-73
2021/07/12 04:03:33;;;;;;;7.78;2.85;;;;;;;12.11;98.21;98493.16;5036980;28;20032;-72
2021/07/12 04:05:59;;;;;;;3.28;2.65;;;;;;;12.06;96.87;98501.94;5054307;28;20055;-72
2021/07/12 04:08:25;;;;;;;6.00;2.55;;;;;;;12.10;97.41;98491.47;5054877;28;20024;-71
2021/07/12 04:10:50;;;;;;;6.78;2.30;;;;;;;12.06;97.16;98491.09;5038801;28;20037;-73
2021/07/12 04:13:16;;;;;;;3.85;2.47;;;;;;;12.08;95.99;98499.84;5034485;28;20037;-73
2021/07/12 04:15:42;;;;;;;6.35;2.65;;;;;;;12.07;96.39;98487.34;5034635;28;20025;-72
2021/07/12 04:18:07;;;;;;;7.25;2.65;;;;;;;12.03;96.80;98496.97;5034650;28;20107;-72
2021/07/12 04:20:33;;;;;;;6.63;2.90;;;;;;;12.06;96.86;98478.38;5042474;28;20029;-73
2021/07/12 04:22:59;;;;;;;3.22;2.60;;;;;;;12.07;97.00;98466.47;5026407;28;20037;-73
2021/07/12 04:25:25;;;;;;;6.28;2.92;;;;;;;12.23;96.65;98488.66;4997716;28;20026;-73
2021/07/12 04:27:51;;;;;;;5.35;2.50;;;;;;;12.29;96.79;98474.22;5015236;28;20427;-73
2021/07/12 04:30:17;;;;;;;6.68;2.80;;;;;;;12.45;96.12;98473.66;5033498;28;20032;-73
2021/07/12 04:32:42;;;;;;;5.18;2.45;;;;;;;12.52;96.21;98467.31;5033940;28;20048;-73
2021/07/12 04:35:08;;;;;;;4.53;2.38;;;;;;;12.62;95.24;98448.63;5038286;28;20049;-72
2021/07/12 04:37:33;;;;;;;7.00;2.70;;;;;;;12.63;94.44;98445.72;5020090;28;20025;-73
2021/07/12 04:39:59;;;;;;;8.48;2.70;;;;;;;12.76;94.60;98446.59;5017435;28;20021;-69
2021/07/12 04:42:24;;;;;;;9.05;2.78;;;;;;;12.84;94.05;98449.03;5035077;28;20026;-75
2021/07/12 04:44:49;;;;;;;4.40;3.30;;;;;;;12.87;94.33;98427.69;5034120;28;20394;-74
2021/07/12 04:47:14;;;;;;;4.95;3.03;;;;;;;13.15;93.98;98450.72;5012683;28;20025;-74
2021/07/12 04:49:40;;;;;;;10.55;3.22;;;;;;;13.21;94.10;98438.97;5031215;28;20052;-74
2021/07/12 04:52:05;;;;;;;5.18;3.30;;;;;;;13.28;93.60;98434.31;5035359;28;20025;-74
2021/07/12 04:54:31;;;;;;;8.70;2.67;;;;;;;13.41;92.93;98437.88;5027998;28;20037;-71
2021/07/12 04:56:56;;;;;;;4.50;2.75;;;;;;;13.61;92.93;98443.84;5020376;28;20021;-68
2021/07/12 04:59:27;;;;;;;5.82;2.75;;;;;;;13.74;92.58;98426.53;5027918;28;20029;-72
2021/07/12 05:01:52;;;;;;;10.27;2.97;;;;;;;13.96;92.08;98434.94;5032127;28;20039;-72
2021/07/12 05:04:17;;;;;;;10.80;3.30;;;;;;;14.14;91.91;98436.75;5023929;28;20405;-72
2021/07/12 05:06:43;;;;;;;5.72;2.70;;;;;;;14.28;90.68;98442.78;5025101;28;20017;-72
2021/07/12 05:09:08;;;;;;;6.45;2.63;;;;;;;14.40;89.58;98440.91;5033899;28;20057;-73
2021/07/12 05:11:34;;;;;;;3.38;2.33;;;;;;;14.61;89.13;98448.47;5032182;28;20108;-73
2021/07/12 05:14:01;;;;;;;3.00;2.47;;;;;;;14.83;87.73;98451.44;5028934;28;20095;-74
2021/07/12 05:16:27;;;;;;;3.92;2.63;;;;;;;14.91;87.12;98452.97;5019836;28;20040;-74
2021/07/12 05:18:53;;;;;;;10.32;2.70;;;;;;;14.98;86.34;98447.38;5011182;28;20414;-72
2021/07/12 05:21:18;;;;;;;4.57;2.80;;;;;;;15.21;85.20;98454.66;5030957;28;20036;-72
2021/07/12 05:23:43;;;;;;;6.85;2.47;;;;;;;15.36;83.57;98454.97;5030147;28;20038;-73
2021/07/12 05:26:09;;;;;;;4.63;2.47;;;;;;;15.49;83.11;98453.84;5035015;28;20066;-72
2021/07/12 05:28:36;;;;;;;2.92;2.13;;;;;;;15.63;83.41;98451.63;5015719;28;20033;-72
2021/07/12 05:31:05;;;;;;;5.40;2.55;;;;;;;15.86;83.40;98453.44;5033177;28;20023;-72
2021/07/12 05:33:30;;;;;;;2.83;1.90;;;;;;;15.98;82.48;98429.63;5012301;28;20045;-74
2021/07/12 05:35:55;;;;;;;2.30;1.92;;;;;;;16.21;82.58;98429.47;5020252;28;20025;-74
2021/07/12 05:38:21;;;;;;;5.78;2.22;;;;;;;16.43;82.25;98440.47;5021676;28;20106;-72
2021/07/12 05:40:46;;;;;;;3.03;2.30;;;;;;;16.56;81.97;98422.06;5020913;28;20045;-72
2021/07/12 05:43:11;;;;;;;4.57;2.40;;;;;;;16.70;80.63;98420.63;5018136;28;20033;-73
2021/07/12 05:45:37;;;;;;;3.00;2.30;;;;;;;16.92;80.95;98411.63;5022855;28;20025;-74
2021/07/12 05:48:03;;;;;;;2.58;2.00;;;;;;;17.12;79.31;98416.53;5020276;28;20022;-75
2021/07/12 05:50:29;;;;;;;6.63;2.17;;;;;;;17.16;77.01;98423.97;5024481;28;20131;-73
2021/07/12 05:52:54;;;;;;;5.50;2.78;;;;;;;17.34;75.90;98414.59;5024664;28;20045;-73
2021/07/12 05:55:20;;;;;;;5.00;2.33;;;;;;;17.47;75.52;98403.25;5018488;28;20041;-73
2021/07/12 05:57:45;;;;;;;7.30;2.17;;;;;;;17.61;74.83;98403.66;5020156;28;20057;-73
2021/07/12 06:00:12;;;;;;;7.10;2.60;;;;;;;17.66;74.71;98401.00;5022096;28;20033;-74
2021/07/12 06:02:39;;;;;;;3.35;2.03;;;;;;;17.94;74.61;98401.78;5008109;28;20033;-74
2021/07/12 06:05:05;;;;;;;3.63;2.22;;;;;;;18.01;74.18;98396.09;5018000;28;20414;-73
2021/07/12 06:07:30;;;;;;;3.08;2.05;;;;;;;18.18;74.15;98392.13;5017129;28;20025;-72
2021/07/12 06:09:55;;;;;;;2.50;1.80;;;;;;;18.56;72.86;98403.88;5021828;28;20033;-72
2021/07/12 06:12:21;;;;;;;4.35;2.00;;;;;;;18.61;72.38;98384.72;5004083;28;20030;-71
2021/07/12 06:14:46;;;;;;;4.63;1.92;;;;;;;18.73;73.35;98397.38;5023631;28;20029;-71
2021/07/12 06:17:11;;;;;;;3.35;1.80;;;;;;;18.98;72.94;98407.69;5012677;28;20559;-74
2021/07/12 06:19:37;;;;;;;5.93;1.75;;;;;;;19.19;72.37;98411.31;5021417;28;20435;-73
2021/07/12 06:22:03;;;;;;;8.02;1.60;;;;;;;19.63;71.44;98403.47;5012010;28;20124;-73
2021/07/12 06:24:28;;;;;;;5.65;1.70;;;;;;;20.04;70.89;98419.19;5024794;28;20033;-73
2021/07/12 06:26:54;;;;;;;3.80;1.65;;;;;;;20.25;69.40;98411.75;5032184;28;20048;-71
2021/07/12 06:29:21;;;;;;;5.75;1.42;;;;;;;20.48;69.49;98397.44;5031747;28;20064;-71
2021/07/12 06:31:47;;;;;;;4.03;1.63;;;;;;;20.92;66.94;98390.47;5033586;28;20076;-71
2021/07/12 06:34:13;;;;;;;4.03;1.60;;;;;;;21.14;67.55;98406.59;5014329;28;20155;-72
2021/07/12 06:36:38;;;;;;;4.47;1.45;;;;;;;21.13;65.85;98408.53;5016238;28;20108;-71
2021/07/12 06:39:05;;;;;;;3.60;1.30;;;;;;;21.42;65.35;98392.16;5010700;28;20014;-72
2021/07/12 06:41:30;;;;;;;5.22;1.48;;;;;;;21.69;63.94;98377.13;5031385;28;20029;-74
2021/07/12 06:43:56;;;;;;;2.10;1.30;;;;;;;22.51;61.15;98391.06;5029810;28;20029;-71
2021/07/12 06:46:22;;;;;;;6.13;1.60;;;;;;;23.19;58.60;98386.44;5031362;28;20096;-71
2021/07/12 06:48:47;;;;;;;3.92;1.27;;;;;;;23.09;58.47;98384.63;5031961;28;20112;-74
2021/07/12 06:51:12;;;;;;;2.28;1.38;;;;;;;23.31;57.54;98383.22;5030044;28;20021;-70
2021/07/12 06:53:38;;;;;;;2.60;1.30;;;;;;;24.00;58.25;98384.44;5031610;28;20044;-71
2021/07/12 06:56:04;;;;;;;2.53;1.23;;;;;;;24.88;56.88;98380.91;5012210;28;20029;-71
2021/07/12 06:58:29;;;;;;;2.08;1.30;;;;;;;24.63;53.01;98383.06;5010555;28;20033;-70
2021/07/12 07:00:55;;;;;;;2.58;0.98;;;;;;;25.61;50.68;98383.81;5002983;28;20108;-72
2021/07/12 07:03:21;;;;;;;2.22;1.10;;;;;;;26.53;47.87;98370.47;5024429;28;20597;-72
2021/07/12 07:05:46;;;;;;;2.17;1.10;;;;;;;26.91;46.29;98376.34;5013441;28;20033;-73
2021/07/12 07:08:11;;;;;;;3.75;1.00;;;;;;;27.24;46.11;98379.53;5018634;28;20022;-72
2021/07/12 07:10:37;;;;;;;1.77;1.17;;;;;;;27.78;44.53;98370.13;5011993;28;20021;-72
2021/07/12 07:13:02;;;;;;;1.70;1.30;;;;;;;27.82;44.30;98360.81;5031863;28;20025;-72
2021/07/12 07:15:28;;;;;;;2.00;1.17;;;;;;;26.89;46.69;98371.09;5024738;28;20114;-69
2021/07/12 07:17:55;;;;;;;1.25;0.88;;;;;;;26.66;46.87;98369.53;5029982;28;20048;-71
2021/07/12 07:20:20;;;;;;;1.60;0.98;;;;;;;26.97;46.66;98354.81;5023323;28;20439;-71
2021/07/12 07:22:45;;;;;;;2.33;0.80;;;;;;;26.61;47.32;98355.81;5027257;28;20098;-70
2021/07/12 07:25:11;;;;;;;2.30;1.00;;;;;;;26.87;46.14;98353.94;5021559;28;20068;-71
2021/07/12 07:27:37;;;;;;;1.88;1.00;;;;;;;27.13;45.74;98349.59;5019554;28;20045;-72
2021/07/12 07:30:04;;;;;;;2.25;0.80;;;;;;;26.85;46.96;98350.69;5023849;28;20039;-71
2021/07/12 07:32:29;;;;;;;1.38;0.85;;;;;;;27.37;45.55;98338.88;5022550;28;20033;-72
2021/07/12 07:34:55;;;;;;;1.63;0.95;;;;;;;27.30;45.30;98328.28;5024079;28;20030;-72
2021/07/12 07:37:20;;;;;;;1.60;0.90;;;;;;;28.32;43.46;98312.97;5022411;28;20475;-71
2021/07/12 07:39:46;;;;;;;2.13;1.05;;;;;;;29.32;41.44;98287.56;5023134;28;20137;-72
2021/07/12 07:42:11;;;;;;;1.85;0.90;;;;;;;29.81;40.23;98288.63;5025488;28;20120;-72
2021/07/12 07:44:37;;;;;;;3.25;0.93;;;;;;;30.59;39.38;98267.41;5026810;28;20105;-72
2021/07/12 07:47:02;;;;;;;1.58;0.82;;;;;;;30.87;38.22;98261.16;5024090;28;20037;-71
2021/07/12 07:49:28;;;;;;;1.42;0.90;;;;;;;30.74;38.32;98261.13;5022352;28;20167;-72
2021/07/12 07:51:54;;;;;;;1.98;0.88;;;;;;;30.84;37.65;98265.47;5022449;28;20033;-72
2021/07/12 07:54:19;;;;;;;1.00;0.60;;;;;;;31.70;36.81;98258.81;5024612;28;20056;-72
2021/07/12 07:56:45;;;;;;;2.40;0.95;;;;;;;31.91;36.24;98253.81;5021925;28;20030;-74
2021/07/12 07:59:10;;;;;;;4.57;0.82;;;;;;;32.23;35.49;98259.50;5012695;28;20021;-75
2021/07/12 08:01:36;;;;;;;1.25;0.70;;;;;;;32.63;35.03;98250.09;5022174;28;20034;-74
2021/07/12 08:04:01;;;;;;;1.33;0.70;;;;;;;33.48;33.38;98244.81;5025913;28;20113;-74
2021/07/12 08:06:27;;;;;;;2.22;0.88;;;;;;;33.60;33.54;98244.69;5029707;28;20028;-74
2021/07/12 08:08:53;;;;;;;2.88;0.77;;;;;;;33.98;32.90;98240.19;5025711;28;20032;-71
2021/07/12 08:11:18;;;;;;;1.25;0.70;;;;;;;32.60;33.83;98253.63;5023319;28;20041;-74
2021/07/12 08:13:44;;;;;;;1.58;0.77;;;;;;;33.32;33.17;98245.69;5027992;28;20435;-74
2021/07/12 08:16:09;;;;;;;1.48;0.80;;;;;;;33.88;32.88;98224.78;5034956;28;20107;-76
2021/07/12 08:18:35;;;;;;;1.40;0.90;;;;;;;32.96;34.49;98236.47;5035032;28;20407;-73
2021/07/12 08:21:01;;;;;;;1.30;0.70;;;;;;;32.47;34.68;98220.13;5045492;28;20025;-74
2021/07/12 08:23:26;;;;;;;1.38;0.82;;;;;;;32.78;34.33;98215.66;5024193;28;20490;-77
2021/07/12 08:25:52;;;;;;;2.58;0.93;;;;;;;34.12;32.92;98204.00;5025716;28;20029;-74
2021/07/12 08:28:18;;;;;;;1.40;1.02;;;;;;;34.50;32.21;98213.44;5016827;28;20034;-73
2021/07/12 08:30:43;;;;;;;2.13;1.05;;;;;;;34.49;32.26;98217.44;5029502;28;20463;-74
2021/07/12 08:33:09;;;;;;;1.40;0.85;;;;;;;33.69;33.16;98220.00;5023621;28;20430;-73
2021/07/12 08:35:34;;;;;;;1.48;0.77;;;;;;;32.81;33.89;98202.91;5027208;28;20022;-75
2021/07/12 08:38:00;;;;;;;1.88;0.85;;;;;;;33.31;34.72;98213.22;5029610;28;20080;-77
2021/07/12 08:40:28;;;;;;;2.17;0.90;;;;;;;33.81;32.98;98203.00;5013777;28;20018;-75
2021/07/12 08:42:56;;;;;;;2.03;0.80;;;;;;;34.69;32.55;98202.13;5019603;28;20105;-74
2021/07/12 08:45:22;;;;;;;1.20;0.47;;;;;;;36.58;30.26;98199.88;5006271;28;20116;-69
2021/07/12 08:47:48;;;;;;;1.05;0.88;;;;;;;36.04;30.47;98186.50;5032549;28;20128;-72
2021/07/12 08:50:14;;;;;;;0.70;0.70;;;;;;;35.67;30.60;98184.53;5014301;28;20062;-73
2021/07/12 08:52:43;;;;;;;3.53;1.00;;;;;;;34.01;32.23;98183.31;5031101;28;20038;-72
2021/07/12 08:55:09;;;;;;;2.42;1.00;;;;;;;34.56;32.17;98180.19;5036057;28;20060;-72
2021/07/12 08:57:34;;;;;;;1.17;0.77;;;;;;;34.51;32.21;98184.16;5027475;28;20060;-71
2021/07/12 09:00:00;;;;;;;5.07;1.23;;;;;;;34.75;32.27;98188.56;5015274;28;20018;-71
2021/07/12 09:02:25;;;;;;;1.83;0.90;;;;;;;35.68;29.56;98184.13;5027794;28;20032;-76
2021/07/12 09:04:54;;;;;;;1.42;0.77;;;;;;;35.76;30.04;98183.03;5031666;28;20063;-73
2021/07/12 09:07:21;;;;;;;;;;;;;;;34.86;31.45;98180.28;5024069;28;20391;-72
2021/07/12 09:09:58;;;;;;;2.05;0.90;;;;;;;34.89;29.96;98168.28;5019587;28;19924;-72
2021/07/12 09:12:38;;;;;;;1.25;0.80;;;;;;;35.11;30.06;98175.84;5053468;28;20056;-76
2021/07/12 09:15:06;;;;;;;0.88;0.60;;;;;;;35.03;30.99;98176.91;5024525;28;20026;-75
2021/07/12 09:17:33;;;;;;;0.85;0.80;;;;;;;36.34;29.60;98184.38;5027541;28;20025;-77
2021/07/12 09:19:59;;;;;;;1.55;1.10;;;;;;;35.36;31.20;98183.75;5031191;28;20108;-69
2021/07/12 09:22:31;;;;;;;0.80;0.60;;;;;;;36.29;29.80;98173.47;5026023;28;20121;-71
2021/07/12 09:25:00;;;;;;;2.13;0.90;;;;;;;36.62;29.19;98172.50;5038402;28;20025;-72
2021/07/12 09:27:27;;;;;;;1.08;0.60;;;;;;;36.25;29.97;98171.81;5053149;28;20482;-72
2021/07/12 09:29:55;;;;;;;2.63;0.70;;;;;;;36.90;27.76;98162.63;5030386;28;20025;-76
2021/07/12 09:32:27;;;;;;;2.33;0.88;;;;;;;35.12;31.87;98169.00;5007723;28;20124;-77
2021/07/12 09:35:01;;;;;;;0.70;0.60;;;;;;;34.60;31.70;98170.66;5014236;28;20034;-77
2021/07/12 09:37:28;;;;;;;2.42;0.70;;;;;;;35.71;30.54;98172.13;5023927;28;20029;-76
2021/07/12 09:39:54;;;;;;;0.80;0.68;;;;;;;35.33;31.38;98164.84;5033210;28;20022;-76
2021/07/12 09:42:31;;;;;;;2.15;0.73;;;;;;;36.74;28.20;98157.31;5010144;28;20064;-76
2021/07/12 09:44:58;;;;;;;0.85;0.60;;;;;;;34.18;30.97;98165.97;5034744;28;20418;-75
2021/07/12 09:47:26;;;;;;;1.00;0.82;;;;;;;35.41;29.60;98158.09;5053002;28;20159;-77
2021/07/12 09:50:00;;;;;;;1.38;0.90;;;;;;;35.20;31.21;98172.72;5051567;28;20057;-69
2021/07/12 09:52:26;;;;;;;1.13;0.77;;;;;;;35.56;28.64;98175.94;5038478;28;20110;-69
2021/07/12 09:54:52;;;;;;;0.70;0.60;;;;;;;34.32;29.83;98182.25;5031354;28;20538;-69
2021/07/12 09:57:22;;;;;;;0.70;0.60;;;;;;;34.43;30.38;98176.81;5025818;28;20060;-69
2021/07/12 10:00:03;;;;;;;0.90;0.60;;;;;;;34.13;29.95;98180.34;5322091;22;20638;-70
2021/07/12 10:02:32;;;;;;;2.25;0.90;;;;;;;34.08;30.85;98177.84;5041234;28;20025;-70
2021/07/12 10:05:02;;;;;;;2.42;0.70;;;;;;;33.53;31.91;98174.38;5032646;28;20029;-72
2021/07/12 10:07:29;;;;;;;2.30;0.85;;;;;;;34.14;30.62;98167.09;5037784;28;20033;-70
2021/07/12 10:09:55;;;;;;;1.17;0.70;;;;;;;35.22;29.78;98166.72;5045966;28;20071;-71
2021/07/12 10:12:21;;;;;;;1.15;0.70;;;;;;;34.79;31.35;98169.72;5048375;28;20056;-71
2021/07/12 10:14:47;;;;;;;0.93;0.70;;;;;;;35.16;29.58;98176.66;5051726;28;20049;-71
2021/07/12 10:17:33;;;;;;;4.13;0.77;;;;;;;34.82;29.37;98154.09;5043362;28;20025;-71
2021/07/12 10:19:58;;;;;;;1.40;0.70;;;;;;;35.69;29.02;98123.06;5037217;28;20033;-70
2021/07/12 10:22:25;;;;;;;1.05;0.60;;;;;;;36.17;28.29;98145.59;5048378;28;20074;-70
2021/07/12 10:24:51;;;;;;;0.95;0.77;;;;;;;36.08;28.61;98147.94;5051903;28;20086;-70
2021/07/12 10:27:26;;;;;;;1.60;0.45;;;;;;;36.15;28.81;98136.72;5050882;28;20545;-70
2021/07/12 10:29:57;;;;;;;3.22;0.68;;;;;;;36.39;27.07;98126.84;5050652;28;20033;-71
2021/07/12 10:32:24;;;;;;;0.82;0.68;;;;;;;36.38;27.21;98134.50;5039294;28;20471;-70
2021/07/12 10:34:55;;;;;;;1.40;0.70;;;;;;;36.12;27.71;98143.16;5031265;28;20040;-70
2021/07/12 10:37:35;;;;;;;1.13;0.73;;;;;;;35.78;29.08;98120.72;5020220;28;20062;-71
2021/07/12 10:40:05;;;;;;;0.52;0.52;;;;;;;35.46;27.78;98126.81;5034967;28;20047;-71
2021/07/12 10:42:48;;;;;;;0.95;0.63;;;;;;;35.02;28.32;98126.66;5045533;28;20039;-71
2021/07/12 10:45:26;;;;;;;0.65;0.63;;;;;;;34.32;28.97;98119.66;5030062;28;20398;-71
2021/07/12 10:47:57;;;;;;;1.33;0.57;;;;;;;33.49;30.08;98120.22;5044465;28;20032;-71
2021/07/12 10:50:34;;;;;;;0.77;0.60;;;;;;;32.51;31.90;98136.19;5031890;28;20048;-71
2021/07/12 10:53:16;;;;;;;0.60;0.60;;;;;;;32.53;31.72;98145.84;5035547;28;20025;-70
2021/07/12 10:55:46;;;;;;;1.00;0.60;;;;;;;31.99;32.47;98149.34;5036283;28;20033;-70
2021/07/12 10:58:17;;;;;;;0.95;0.68;;;;;;;31.04;34.04;98151.09;5035924;28;20029;-70
2021/07/12 11:00:43;;;;;;;1.30;0.75;;;;;;;31.18;33.89;98148.72;5035257;28;20395;-70
2021/07/12 11:03:33;;;;;;;1.73;0.60;;;;;;;31.10;33.70;98158.88;5041745;28;20074;-70
2021/07/12 11:05:59;;;;;;;0.80;0.60;;;;;;;31.25;33.72;98157.28;5054202;28;20082;-70
2021/07/12 11:08:42;;;;;;;2.45;0.60;;;;;;;31.14;34.22;98157.00;5044224;28;20111;-70
2021/07/12 11:11:09;;;;;;;1.05;0.70;;;;;;;31.39;33.86;98156.94;5052055;28;20505;-71
2021/07/12 11:13:59;;;;;;;0.88;0.77;;;;;;;31.27;34.42;98162.53;5054644;28;20055;-71
2021/07/12 11:16:46;;;;;;;0.73;0.70;;;;;;;31.35;34.58;98158.78;5036690;28;20031;-71
2021/07/12 11:19:20;;;;;;;1.35;0.80;;;;;;;31.04;34.70;98154.69;5038458;28;20098;-71
2021/07/12 11:21:47;;;;;;;1.20;0.70;;;;;;;31.32;34.28;98145.50;5057177;28;20024;-69
2021/07/12 11:24:17;;;;;;;1.15;0.52;;;;;;;31.36;33.81;98140.81;5055774;28;20025;-69
2021/07/12 11:26:46;;;;;;;0.88;0.80;;;;;;;31.71;34.30;98138.22;5056509;28;20024;-70
2021/07/12 11:29:14;;;;;;;1.02;0.90;;;;;;;31.21;34.26;98148.81;5055734;28;20537;-70
2021/07/12 11:32:08;;;;;;;2.42;1.00;;;;;;;30.80;34.96;98141.59;5032093;28;20033;-70
2021/07/12 11:34:37;;;;;;;0.90;0.73;;;;;;;30.44;35.70;98153.66;5037572;28;20021;-70
2021/07/12 11:37:06;;;;;;;2.00;0.90;;;;;;;30.41;36.07;98157.16;5025145;28;20029;-69